Terminal Aerodrome Forecast
Issued by NWS North Platte, NE

Home | Current Version | Previous Version | Text Only | Print | Product List | Glossary On
Versions: 1 2 3 4 5 6 7 8 9 10 11 12 13 14 15 16 17 18 19
000
FTUS43 KLBF 261200 AAA
TAFVTN
TAF AMD
KVTN 261221Z 2612/2712 35010KT 6SM -SN BR FEW025 OVC040
     FM261500 35012KT P6SM OVC025
     FM262000 34012KT P6SM OVC100
     FM270300 33008KT P6SM SCT100=

USA.gov is the U.S. government's official web portal to all federal, state and local government web resources and services.